Time;durP1;ratioP1;P1;durP2;ratioP2;P2;SDS_P1;SDS_P2;PMS_P1;PMS_P2;Temp;Humidity;BMP_temperature;BMP_pressure;BME280_temperature;BME280_humidity;BME280_pressure;Samples;Min_cycle;Max_cycle;Signal;HPM_P1;HPM_P2
2022/03/29 00:01:04;;;;;;;23.65;15.80;;;;;;;14.26;46.00;101573.69;5073142;28;20045;-64
2022/03/29 00:03:31;;;;;;;25.20;15.90;;;;;;;14.26;46.50;101570.97;5073198;28;20401;-64
2022/03/29 00:05:59;;;;;;;27.50;15.80;;;;;;;14.26;46.49;101568.28;5073180;28;20123;-64
2022/03/29 00:08:27;;;;;;;22.73;15.27;;;;;;;14.24;46.33;101560.28;5055073;28;20063;-64
2022/03/29 00:10:54;;;;;;;25.98;15.10;;;;;;;14.25;46.30;101563.84;5073143;28;20063;-64
2022/03/29 00:13:21;;;;;;;26.10;16.33;;;;;;;14.23;46.66;101563.09;5055505;28;20429;-64
2022/03/29 00:15:47;;;;;;;28.58;16.88;;;;;;;14.22;46.53;101555.97;5072876;28;20045;-65
2022/03/29 00:18:14;;;;;;;23.83;16.10;;;;;;;14.19;46.62;101556.19;5071865;28;20119;-65
2022/03/29 00:20:40;;;;;;;25.13;16.00;;;;;;;14.15;46.77;101555.56;5076190;28;20041;-65
2022/03/29 00:23:07;;;;;;;28.83;17.42;;;;;;;14.12;46.79;101555.78;5076835;28;20040;-64
2022/03/29 00:25:34;;;;;;;26.83;17.25;;;;;;;14.10;46.77;101551.44;5055645;28;20044;-64
2022/03/29 00:28:00;;;;;;;27.63;16.55;;;;;;;14.07;46.77;101551.69;5055556;28;20402;-64
2022/03/29 00:30:27;;;;;;;24.52;16.45;;;;;;;14.05;46.77;101542.84;5058487;28;20120;-64
2022/03/29 00:32:55;;;;;;;25.42;16.92;;;;;;;14.02;47.01;101543.91;5076813;28;20482;-64
2022/03/29 00:35:24;;;;;;;25.95;16.48;;;;;;;13.99;46.93;101539.63;5077099;28;20493;-64
2022/03/29 00:37:51;;;;;;;30.48;17.60;;;;;;;13.96;46.98;101539.84;5076870;28;20072;-64
2022/03/29 00:40:19;;;;;;;25.85;16.90;;;;;;;13.94;46.98;101539.09;5076638;28;20144;-64
2022/03/29 00:42:46;;;;;;;26.80;18.05;;;;;;;13.89;47.04;101535.88;5076634;28;20040;-64
2022/03/29 00:45:12;;;;;;;27.80;17.90;;;;;;;13.86;47.20;101533.41;5076911;28;20040;-64
2022/03/29 00:47:39;;;;;;;27.55;18.27;;;;;;;13.83;47.14;101527.38;5058233;28;20047;-64
2022/03/29 00:50:06;;;;;;;29.20;18.40;;;;;;;13.81;47.31;101530.19;5076732;28;20123;-65
2022/03/29 00:52:33;;;;;;;29.00;18.17;;;;;;;13.77;47.22;101525.13;5076744;28;20041;-64
2022/03/29 00:55:00;;;;;;;25.88;17.52;;;;;;;13.73;47.52;101520.91;5076480;28;20041;-64
2022/03/29 00:57:31;;;;;;;28.73;18.98;;;;;;;13.67;47.53;101516.84;5076270;28;20397;-65
2022/03/29 00:59:58;;;;;;;27.70;19.02;;;;;;;13.60;47.40;101512.84;5059142;28;20366;-64
2022/03/29 01:02:25;;;;;;;29.13;20.05;;;;;;;13.54;47.63;101514.16;5076314;28;20044;-64
2022/03/29 01:04:51;;;;;;;30.73;20.33;;;;;;;13.50;47.77;101514.50;5076160;28;20045;-64
2022/03/29 01:07:18;;;;;;;30.70;20.08;;;;;;;13.46;47.64;101510.31;5076452;28;20036;-66
2022/03/29 01:09:45;;;;;;;33.35;21.85;;;;;;;13.41;47.78;101507.06;5076150;28;20052;-65
2022/03/29 01:12:12;;;;;;;30.67;21.25;;;;;;;13.35;48.07;101501.13;5058143;28;20045;-64
2022/03/29 01:14:39;;;;;;;35.63;21.83;;;;;;;13.30;48.01;101508.69;5075999;28;20513;-65
2022/03/29 01:19:57;;;;;;;35.20;23.90;;;;;;;13.17;48.21;101502.44;5075829;28;20040;-64
2022/03/29 01:22:24;;;;;;;38.17;23.33;;;;;;;13.13;48.23;101500.03;5076087;28;20040;-64
2022/03/29 01:24:52;;;;;;;35.17;24.42;;;;;;;13.09;48.45;101493.16;5075931;28;20382;-64
2022/03/29 01:27:20;;;;;;;34.03;22.55;;;;;;;13.05;48.46;101492.50;5075613;28;20037;-64
2022/03/29 01:29:49;;;;;;;34.08;23.23;;;;;;;13.03;48.72;101489.06;5075818;28;20054;-64
2022/03/29 01:32:16;;;;;;;35.03;23.73;;;;;;;13.00;48.76;101481.19;5075596;28;20421;-64
2022/03/29 01:34:43;;;;;;;38.33;24.83;;;;;;;12.95;48.83;101488.72;5075997;28;20044;-64
2022/03/29 01:37:10;;;;;;;35.78;23.55;;;;;;;12.93;49.00;101487.97;5075694;28;20102;-64
2022/03/29 01:39:37;;;;;;;35.88;24.23;;;;;;;12.90;49.15;101483.66;5075379;28;20513;-65
2022/03/29 01:42:05;;;;;;;39.60;25.42;;;;;;;12.87;49.24;101485.72;5075590;28;20041;-64
2022/03/29 01:44:32;;;;;;;40.20;24.92;;;;;;;12.86;49.30;101482.16;5075831;28;20045;-64
2022/03/29 01:46:59;;;;;;;35.85;24.98;;;;;;;12.85;49.46;101482.28;5075169;28;20047;-64
2022/03/29 01:49:25;;;;;;;39.58;24.90;;;;;;;12.87;49.43;101477.63;5075533;28;20048;-65
2022/03/29 01:51:58;;;;;;;36.83;25.50;;;;;;;12.87;49.50;101472.25;5075255;28;20402;-66
2022/03/29 01:54:25;;;;;;;36.20;24.95;;;;;;;12.86;49.53;101468.69;5075279;28;20044;-65
2022/03/29 01:56:52;;;;;;;39.67;25.27;;;;;;;12.85;49.59;101475.03;5075880;28;20409;-64
2022/03/29 01:59:18;;;;;;;37.28;24.83;;;;;;;12.83;49.67;101471.59;5076617;28;20028;-64
2022/03/29 02:01:47;;;;;;;35.30;24.90;;;;;;;12.81;49.76;101469.97;5075144;28;20037;-64
2022/03/29 02:04:15;;;;;;;41.72;26.85;;;;;;;12.79;49.92;101459.31;5075166;28;20482;-65
2022/03/29 02:06:41;;;;;;;35.80;25.00;;;;;;;12.79;49.81;101466.53;5056855;28;20045;-65
2022/03/29 02:09:10;;;;;;;39.13;25.58;;;;;;;12.77;49.89;101460.38;5075117;28;20040;-64
2022/03/29 02:11:40;;;;;;;44.35;27.95;;;;;;;12.73;49.99;101455.22;5075003;28;20040;-65
2022/03/29 02:14:09;;;;;;;40.35;26.33;;;;;;;12.72;50.00;101449.94;5074927;28;20048;-65
2022/03/29 02:16:36;;;;;;;40.85;27.05;;;;;;;12.67;50.13;101452.94;5074968;28;20079;-64
2022/03/29 02:19:02;;;;;;;38.63;27.33;;;;;;;12.63;49.92;101448.75;5075011;28;20127;-65
2022/03/29 02:21:29;;;;;;;41.10;27.75;;;;;;;12.60;50.18;101450.75;5074536;28;20555;-65
2022/03/29 02:23:55;;;;;;;42.30;27.02;;;;;;;12.57;50.37;101446.44;5074930;28;20123;-64
2022/03/29 02:26:22;;;;;;;38.63;27.30;;;;;;;12.57;50.32;101450.97;5074755;28;20044;-64
2022/03/29 02:28:48;;;;;;;41.05;26.92;;;;;;;12.56;50.29;101435.78;5074916;28;20048;-65
2022/03/29 02:31:15;;;;;;;38.25;27.35;;;;;;;12.55;50.61;101436.75;5074342;28;20037;-65
2022/03/29 02:33:42;;;;;;;40.60;27.90;;;;;;;12.51;50.41;101432.53;5040133;28;20041;-65
2022/03/29 02:36:12;;;;;;;42.83;28.48;;;;;;;12.48;50.59;101432.75;5074400;28;20048;-64
2022/03/29 02:38:39;;;;;;;42.33;27.67;;;;;;;12.44;50.69;101429.41;5074656;28;20474;-64
2022/03/29 02:41:05;;;;;;;41.03;28.08;;;;;;;12.40;50.69;101423.38;5074556;28;20037;-65
2022/03/29 02:43:32;;;;;;;42.83;29.20;;;;;;;12.36;50.71;101418.31;5073686;28;20379;-64
2022/03/29 02:45:58;;;;;;;39.58;27.77;;;;;;;12.31;50.80;101409.69;5023636;28;20044;-64
2022/03/29 02:48:26;;;;;;;41.05;27.92;;;;;;;12.28;50.86;101402.69;5074615;28;20040;-64
2022/03/29 02:50:52;;;;;;;41.92;27.45;;;;;;;12.26;51.01;101401.06;5073788;28;20423;-64
2022/03/29 02:53:19;;;;;;;40.38;27.50;;;;;;;12.25;51.03;101402.03;5074097;28;20044;-64
2022/03/29 02:55:45;;;;;;;44.13;28.60;;;;;;;12.24;51.08;101401.16;5074066;28;20032;-64
2022/03/29 02:58:12;;;;;;;40.75;27.88;;;;;;;12.26;51.29;101406.44;5074102;28;20044;-64
2022/03/29 03:00:39;;;;;;;40.63;26.92;;;;;;;12.27;51.14;101402.78;5073937;28;20044;-64
2022/03/29 03:03:06;;;;;;;40.63;28.23;;;;;;;12.26;51.24;101395.69;5074125;28;20093;-64
2022/03/29 03:05:33;;;;;;;42.72;28.13;;;;;;;12.24;51.17;101394.91;5078972;28;20123;-64
2022/03/29 03:08:00;;;;;;;41.45;29.08;;;;;;;12.21;51.26;101395.13;5076647;28;20041;-64
2022/03/29 03:10:26;;;;;;;44.95;30.45;;;;;;;12.18;51.38;101393.50;5073966;28;20083;-64
2022/03/29 03:12:53;;;;;;;42.22;28.55;;;;;;;12.14;51.29;101386.63;5073772;28;20052;-64
2022/03/29 03:15:24;;;;;;;40.30;28.42;;;;;;;12.12;51.29;101387.69;5074100;28;20052;-64
2022/03/29 03:17:52;;;;;;;44.05;28.70;;;;;;;12.09;51.36;101386.94;5073292;28;20046;-63
2022/03/29 03:20:21;;;;;;;45.28;30.65;;;;;;;12.06;51.45;101378.22;5073650;28;20032;-64
2022/03/29 03:22:49;;;;;;;47.53;29.42;;;;;;;12.03;51.53;101376.59;5073324;28;20502;-64
2022/03/29 03:25:15;;;;;;;44.58;29.67;;;;;;;12.01;51.55;101381.22;5056127;28;20074;-64
2022/03/29 03:27:42;;;;;;;49.25;31.05;;;;;;;12.03;51.63;101378.41;5073667;28;20049;-63
2022/03/29 03:30:11;;;;;;;46.85;29.48;;;;;;;12.00;51.65;101376.81;5072837;28;20044;-64
2022/03/29 03:32:39;;;;;;;51.38;31.80;;;;;;;12.00;51.78;101378.63;5073226;28;20044;-64
2022/03/29 03:35:07;;;;;;;48.40;30.80;;;;;;;11.97;51.88;101377.00;5055652;28;20127;-64
2022/03/29 03:37:34;;;;;;;50.08;31.05;;;;;;;11.96;51.75;101371.72;5073697;28;20067;-64
2022/03/29 03:40:06;;;;;;;48.53;31.98;;;;;;;11.95;51.92;101375.38;5073530;28;20051;-64
2022/03/29 03:42:33;;;;;;;48.50;32.13;;;;;;;11.95;51.97;101372.69;5054677;28;20043;-64
2022/03/29 03:45:02;;;;;;;46.28;31.05;;;;;;;11.96;51.92;101372.59;5073323;28;20072;-63
2022/03/29 03:47:29;;;;;;;48.35;30.90;;;;;;;11.97;52.15;101370.75;5073125;28;20044;-64
2022/03/29 03:49:55;;;;;;;48.22;31.40;;;;;;;11.97;52.11;101371.63;5073271;28;20099;-64
2022/03/29 03:52:21;;;;;;;49.40;31.55;;;;;;;11.97;52.17;101363.56;5073374;28;20051;-63
2022/03/29 03:54:48;;;;;;;48.35;31.77;;;;;;;11.97;52.28;101363.56;5072239;28;20498;-64
2022/03/29 03:57:15;;;;;;;50.90;31.73;;;;;;;11.97;52.19;101360.00;5073087;28;20037;-64
2022/03/29 03:59:41;;;;;;;51.60;31.63;;;;;;;11.94;52.25;101354.81;5072952;28;20033;-63
2022/03/29 04:02:08;;;;;;;49.90;31.33;;;;;;;11.95;52.31;101357.41;5072995;28;20056;-64
2022/03/29 04:04:35;;;;;;;53.83;33.60;;;;;;;11.96;52.54;101351.06;5072757;28;20393;-64
2022/03/29 04:07:01;;;;;;;56.05;32.95;;;;;;;11.94;52.43;101346.75;5072998;28;20055;-64
2022/03/29 04:09:28;;;;;;;51.00;31.05;;;;;;;11.89;52.49;101344.38;5072736;28;20406;-63
2022/03/29 04:11:55;;;;;;;48.20;30.70;;;;;;;11.87;52.57;101343.59;5055006;28;20036;-64
2022/03/29 04:14:21;;;;;;;49.88;31.95;;;;;;;11.85;52.61;101345.53;5072074;28;20040;-63
2022/03/29 04:16:48;;;;;;;51.67;32.58;;;;;;;11.87;52.77;101345.41;5073088;28;20055;-64
2022/03/29 04:19:14;;;;;;;51.58;32.97;;;;;;;11.86;52.85;101339.16;5072721;28;20119;-64
2022/03/29 04:21:41;;;;;;;49.50;31.38;;;;;;;11.89;52.87;101341.69;5072098;28;20056;-64
2022/03/29 04:24:07;;;;;;;53.75;32.80;;;;;;;11.91;52.77;101336.19;5073197;28;20044;-63
2022/03/29 04:26:34;;;;;;;53.72;33.22;;;;;;;11.90;52.87;101335.34;5073351;28;20049;-64
2022/03/29 04:29:01;;;;;;;53.15;33.03;;;;;;;11.87;52.68;101331.97;5072491;28;20053;-64
2022/03/29 04:31:27;;;;;;;51.33;31.50;;;;;;;11.85;52.50;101331.19;5072721;28;20051;-64
2022/03/29 04:33:54;;;;;;;51.75;32.70;;;;;;;11.82;52.91;101318.81;5072540;28;20044;-63
2022/03/29 04:36:20;;;;;;;52.55;33.08;;;;;;;11.80;53.13;101318.06;5072824;28;20044;-64
2022/03/29 04:38:47;;;;;;;53.33;32.28;;;;;;;11.78;53.09;101314.63;5073016;28;20040;-64
2022/03/29 04:41:13;;;;;;;54.10;32.00;;;;;;;11.76;53.19;101313.81;5072793;28;20063;-64
2022/03/29 04:43:40;;;;;;;52.95;33.13;;;;;;;11.75;53.24;101320.16;5068618;28;20040;-64
2022/03/29 04:46:07;;;;;;;55.85;33.15;;;;;;;11.72;53.56;101315.88;5072592;28;20052;-63
2022/03/29 04:48:34;;;;;;;54.33;33.90;;;;;;;11.70;53.37;101325.00;5072477;28;20064;-63
2022/03/29 04:51:01;;;;;;;54.72;33.85;;;;;;;11.68;53.61;101327.81;5072758;28;20045;-64
2022/03/29 04:53:28;;;;;;;54.10;34.08;;;;;;;11.63;53.60;101321.88;5072663;28;20094;-64
2022/03/29 04:55:55;;;;;;;61.00;35.30;;;;;;;11.59;53.68;101323.03;5072611;28;20032;-63
2022/03/29 04:58:23;;;;;;;52.85;33.15;;;;;;;11.60;53.88;101329.28;5037812;28;20048;-64
2022/03/29 05:00:50;;;;;;;55.33;34.47;;;;;;;11.56;53.72;101327.78;5072391;28;20338;-64
2022/03/29 05:03:16;;;;;;;53.65;33.50;;;;;;;11.54;53.92;101321.63;5072469;28;20078;-65
2022/03/29 05:05:45;;;;;;;52.70;32.85;;;;;;;11.51;54.05;101319.16;5073952;28;20036;-64
2022/03/29 05:08:11;;;;;;;53.72;33.95;;;;;;;11.49;54.11;101318.41;5076275;28;20115;-64
2022/03/29 05:10:38;;;;;;;58.42;34.53;;;;;;;11.48;54.04;101311.28;5076042;28;20048;-64
2022/03/29 05:13:04;;;;;;;54.88;33.15;;;;;;;11.48;54.24;101309.47;5076417;28;20036;-64
2022/03/29 05:15:31;;;;;;;60.22;34.35;;;;;;;11.49;54.31;101303.13;5076039;28;20044;-64
2022/03/29 05:17:58;;;;;;;57.22;34.85;;;;;;;11.53;54.31;101306.47;5058129;28;20059;-63
2022/03/29 05:20:24;;;;;;;55.50;33.65;;;;;;;11.53;54.50;101310.00;5076046;28;20063;-64
2022/03/29 05:22:52;;;;;;;58.58;34.13;;;;;;;11.52;54.49;101307.44;5075704;28;20032;-64
2022/03/29 05:25:21;;;;;;;56.50;33.47;;;;;;;11.52;54.58;101307.44;5058425;28;20379;-64
2022/03/29 05:27:49;;;;;;;60.38;34.55;;;;;;;11.49;54.69;101311.19;5075468;28;20429;-64
2022/03/29 05:30:16;;;;;;;57.13;33.67;;;;;;;11.49;54.61;101313.88;5076622;28;20043;-64
2022/03/29 05:32:42;;;;;;;55.47;32.72;;;;;;;11.50;54.79;101312.91;5076058;28;20370;-64
2022/03/29 05:35:11;;;;;;;54.83;33.20;;;;;;;11.51;54.74;101313.78;5057876;28;20465;-64
2022/03/29 05:37:40;;;;;;;56.67;32.88;;;;;;;11.53;54.81;101306.47;5075171;28;20045;-63
2022/03/29 05:40:09;;;;;;;58.53;33.83;;;;;;;11.58;54.88;101312.38;5075505;28;20040;-64
2022/03/29 05:42:43;;;;;;;53.22;33.20;;;;;;;11.63;55.03;101304.88;5075562;28;20547;-63
2022/03/29 05:45:12;;;;;;;56.60;33.78;;;;;;;11.69;54.94;101304.44;5074411;28;20102;-64
2022/03/29 05:50:27;;;;;;;52.92;32.17;;;;;;;11.70;54.89;101311.56;5075557;28;20044;-64
2022/03/29 05:52:55;;;;;;;49.55;31.42;;;;;;;11.66;54.86;101305.53;5075138;28;20071;-64
2022/03/29 05:55:23;;;;;;;50.92;30.88;;;;;;;11.64;54.88;101301.22;5074900;28;20049;-65
2022/03/29 05:57:50;;;;;;;56.55;31.40;;;;;;;11.61;55.04;101299.59;5075481;28;20417;-64
2022/03/29 06:00:18;;;;;;;56.50;32.97;;;;;;;11.59;54.99;101297.97;5075172;28;20501;-63
2022/03/29 06:02:45;;;;;;;53.72;32.95;;;;;;;11.58;55.00;101304.31;5075357;28;20367;-64
2022/03/29 06:05:11;;;;;;;53.47;32.08;;;;;;;11.57;55.15;101305.28;5074802;28;20075;-63
2022/03/29 06:07:39;;;;;;;55.80;32.28;;;;;;;11.57;55.26;101305.28;5073979;28;20497;-64
2022/03/29 06:10:07;;;;;;;50.53;30.15;;;;;;;11.57;55.44;101302.59;5068154;28;20048;-65
2022/03/29 06:12:34;;;;;;;47.72;30.25;;;;;;;11.56;55.22;101307.13;5056511;28;20089;-64
2022/03/29 06:15:04;;;;;;;61.75;32.70;;;;;;;11.54;55.48;101306.34;5074356;28;20382;-64
2022/03/29 06:17:31;;;;;;;51.42;30.60;;;;;;;11.54;55.62;101300.97;5071819;28;20043;-65
2022/03/29 06:19:58;;;;;;;50.38;30.40;;;;;;;11.54;55.40;101305.50;5074914;28;20044;-64
2022/03/29 06:22:24;;;;;;;49.75;29.95;;;;;;;11.53;55.44;101298.38;5074798;28;20048;-63
2022/03/29 06:24:51;;;;;;;49.72;28.77;;;;;;;11.52;55.53;101299.34;5056945;28;20032;-64
2022/03/29 06:27:18;;;;;;;50.58;29.95;;;;;;;11.53;55.47;101301.94;5074392;28;20055;-65
2022/03/29 06:29:44;;;;;;;50.17;30.05;;;;;;;11.55;55.47;101308.09;5074258;28;20494;-64
2022/03/29 06:32:16;;;;;;;57.28;31.45;;;;;;;11.58;55.68;101301.63;5072372;28;20398;-64
2022/03/29 06:34:42;;;;;;;54.35;31.15;;;;;;;11.59;55.73;101306.91;5074246;28;20052;-64
2022/03/29 06:37:11;;;;;;;53.95;31.92;;;;;;;11.59;55.70;101309.59;5074633;28;20524;-64
2022/03/29 06:39:42;;;;;;;51.33;30.20;;;;;;;11.59;55.77;101301.53;5074117;28;20045;-66
2022/03/29 06:42:18;;;;;;;52.72;31.17;;;;;;;11.61;55.87;101296.03;5047654;28;20044;-64
2022/03/29 06:44:46;;;;;;;51.08;31.05;;;;;;;11.62;55.80;101300.44;5056808;28;20048;-65
2022/03/29 06:47:14;;;;;;;56.40;31.10;;;;;;;11.64;55.92;101299.38;5074333;28;20496;-63
2022/03/29 06:49:41;;;;;;;52.78;29.77;;;;;;;11.67;55.81;101301.00;5060987;28;20148;-63
2022/03/29 06:52:08;;;;;;;55.15;31.25;;;;;;;11.70;56.05;101303.47;5072999;28;20107;-63
2022/03/29 06:54:35;;;;;;;50.17;30.25;;;;;;;11.71;56.06;101300.69;5056818;28;20033;-64
2022/03/29 06:57:01;;;;;;;58.05;32.17;;;;;;;11.74;56.05;101299.63;5074247;28;20041;-64
2022/03/29 06:59:32;;;;;;;54.50;31.58;;;;;;;11.76;56.02;101301.22;5056574;28;20401;-65
2022/03/29 07:02:13;;;;;;;53.70;31.13;;;;;;;11.78;56.06;101299.34;5074798;28;20127;-64
2022/03/29 07:04:40;;;;;;;52.50;31.88;;;;;;;11.80;56.11;101298.38;5074250;28;20486;-65
2022/03/29 07:07:07;;;;;;;56.25;31.70;;;;;;;11.81;56.08;101297.41;5073982;28;20056;-64
2022/03/29 07:12:20;;;;;;;53.42;31.25;;;;;;;11.87;56.08;101299.66;5056884;28;20044;-64
2022/03/29 07:14:47;;;;;;;56.83;30.83;;;;;;;11.90;56.26;101303.03;5073934;28;20044;-64
2022/03/29 07:17:19;;;;;;;57.83;31.70;;;;;;;11.91;55.97;101296.69;5074143;28;20063;-65
2022/03/29 07:19:46;;;;;;;57.75;32.90;;;;;;;11.93;56.07;101296.56;5073706;28;20036;-64
2022/03/29 07:22:13;;;;;;;57.47;32.88;;;;;;;11.90;56.04;101303.03;5073678;28;20502;-64
2022/03/29 07:24:41;;;;;;;55.63;32.42;;;;;;;11.88;56.06;101304.06;5055865;28;20135;-65
2022/03/29 07:27:08;;;;;;;57.83;32.65;;;;;;;11.88;56.37;101304.06;5054052;28;20055;-65
2022/03/29 07:29:35;;;;;;;59.95;33.47;;;;;;;11.88;56.12;101298.69;5073340;28;20559;-64
2022/03/29 07:32:02;;;;;;;60.00;34.08;;;;;;;11.87;56.20;101305.91;5073712;28;20078;-67
2022/03/29 07:34:29;;;;;;;55.97;32.38;;;;;;;11.89;56.36;101295.03;5072440;28;20052;-68
2022/03/29 07:36:56;;;;;;;56.97;32.20;;;;;;;11.91;56.29;101296.69;5073530;28;20512;-67
2022/03/29 07:39:23;;;;;;;57.50;32.85;;;;;;;11.93;56.22;101296.56;5073050;28;20062;-67
2022/03/29 07:41:49;;;;;;;60.85;33.72;;;;;;;11.92;56.14;101302.94;5073635;28;20600;-68
2022/03/29 07:44:17;;;;;;;60.90;32.45;;;;;;;11.90;56.28;101297.66;5073527;28;20041;-67
2022/03/29 07:46:44;;;;;;;59.25;32.75;;;;;;;11.90;56.41;101294.97;5055613;28;20047;-67
2022/03/29 07:49:10;;;;;;;63.30;35.22;;;;;;;11.93;56.41;101299.28;5073214;28;20429;-67
2022/03/29 07:51:57;;;;;;;64.57;34.47;;;;;;;11.94;56.44;101299.16;5073253;28;20044;-67
2022/03/29 07:54:24;;;;;;;62.20;33.70;;;;;;;11.97;56.53;101290.88;5072901;28;20036;-67
2022/03/29 07:56:50;;;;;;;63.92;35.80;;;;;;;11.98;56.48;101291.72;5055471;28;20135;-67
2022/03/29 07:59:17;;;;;;;60.35;33.53;;;;;;;11.98;56.49;101287.22;5071979;28;20055;-67
2022/03/29 08:01:43;;;;;;;59.08;31.55;;;;;;;11.97;56.57;101282.78;5072832;28;20059;-67
2022/03/29 08:04:10;;;;;;;59.35;33.38;;;;;;;12.00;56.68;101289.81;5073428;28;20048;-67
2022/03/29 08:06:36;;;;;;;57.13;32.70;;;;;;;12.02;56.59;101286.03;5073607;28;20040;-67
2022/03/29 08:09:03;;;;;;;55.50;32.45;;;;;;;12.04;56.67;101284.09;5072882;28;20598;-66
2022/03/29 08:11:30;;;;;;;58.22;33.05;;;;;;;12.07;56.73;101291.09;5072135;28;20051;-66
2022/03/29 08:13:56;;;;;;;56.78;31.40;;;;;;;12.08;56.72;101290.97;5073124;28;20044;-66
2022/03/29 08:16:23;;;;;;;54.00;31.90;;;;;;;12.09;56.59;101292.72;5073382;28;20131;-66
2022/03/29 08:18:51;;;;;;;52.05;30.95;;;;;;;12.08;56.61;101296.38;5072435;28;20057;-67
2022/03/29 08:24:03;;;;;;;65.10;31.38;;;;;;;12.04;56.67;101292.16;5072753;28;20045;-66
2022/03/29 08:26:30;;;;;;;55.30;31.65;;;;;;;12.06;56.60;101297.44;5073128;28;20124;-67
2022/03/29 08:28:57;;;;;;;56.72;33.33;;;;;;;12.07;56.73;101294.66;5072335;28;20053;-67
2022/03/29 08:31:23;;;;;;;63.92;34.15;;;;;;;12.11;56.56;101287.22;5054714;28;20421;-67
2022/03/29 08:33:50;;;;;;;55.78;31.73;;;;;;;12.14;56.85;101289.69;5071733;28;20417;-67
2022/03/29 08:36:16;;;;;;;51.92;30.90;;;;;;;12.17;56.90;101285.91;5072655;28;20033;-67
2022/03/29 08:38:44;;;;;;;54.60;30.30;;;;;;;12.19;56.79;101283.97;5072871;28;20044;-68
2022/03/29 08:41:13;;;;;;;54.55;30.95;;;;;;;12.21;56.99;101282.03;5040861;28;20490;-68
2022/03/29 08:43:40;;;;;;;52.78;30.27;;;;;;;12.22;56.90;101276.53;5076489;28;20087;-67
2022/03/29 08:46:07;;;;;;;52.78;30.55;;;;;;;12.25;56.88;101280.84;5076483;28;20045;-67
2022/03/29 08:48:38;;;;;;;53.80;31.42;;;;;;;12.27;56.77;101278.91;5076381;28;20044;-68
2022/03/29 08:51:06;;;;;;;53.50;31.15;;;;;;;12.30;56.80;101282.25;5058551;28;20045;-66
2022/03/29 08:53:52;;;;;;;47.10;28.70;;;;;;;12.34;56.69;101278.34;5076682;28;20044;-66
2022/03/29 08:56:19;;;;;;;49.47;28.50;;;;;;;12.36;56.84;101280.94;5042307;28;20042;-67
2022/03/29 08:58:48;;;;;;;49.60;29.38;;;;;;;12.34;56.73;101281.06;5036593;28;20038;-68
2022/03/29 09:01:19;;;;;;;45.38;28.65;;;;;;;12.34;56.78;101288.28;5038013;28;20037;-68
2022/03/29 09:04:12;;;;;;;46.58;28.30;;;;;;;12.35;56.91;101284.59;5038752;28;20146;-65
2022/03/29 09:06:50;;;;;;;48.20;28.17;;;;;;;12.36;56.73;101283.63;5039681;28;20049;-66
2022/03/29 09:09:23;;;;;;;50.92;29.08;;;;;;;12.36;56.78;101281.81;5048356;28;20054;-66
2022/03/29 09:11:51;;;;;;;49.50;29.02;;;;;;;12.37;56.69;101288.06;5040886;28;20034;-66
2022/03/29 09:14:20;;;;;;;51.55;28.70;;;;;;;12.39;56.61;101286.97;5036318;28;20045;-67
2022/03/29 09:16:48;;;;;;;51.30;30.13;;;;;;;12.40;56.64;101286.00;5051982;28;20080;-67
2022/03/29 09:19:15;;;;;;;49.75;28.88;;;;;;;12.40;56.67;101294.09;5056000;28;20474;-67
2022/03/29 09:21:43;;;;;;;49.13;28.80;;;;;;;12.45;56.73;101292.88;5038023;28;20112;-67
2022/03/29 09:24:14;;;;;;;46.72;29.05;;;;;;;12.49;56.89;101291.69;5033917;28;20045;-67
2022/03/29 09:26:52;;;;;;;48.83;29.15;;;;;;;12.52;56.78;101286.94;5018457;28;20037;-66
2022/03/29 09:29:21;;;;;;;50.90;29.98;;;;;;;12.53;56.57;101285.13;5036134;28;20045;-65
2022/03/29 09:32:09;;;;;;;51.75;29.90;;;;;;;12.53;56.92;101280.59;5035796;28;20037;-66
2022/03/29 09:34:36;;;;;;;53.88;30.48;;;;;;;12.54;56.70;101276.91;5035995;28;20049;-66
2022/03/29 09:37:04;;;;;;;52.65;31.55;;;;;;;12.55;56.79;101278.66;5039056;28;20037;-67
2022/03/29 09:39:40;;;;;;;53.55;32.17;;;;;;;12.56;56.62;101291.13;5055907;28;20045;-66
2022/03/29 09:42:17;;;;;;;48.65;28.48;;;;;;;12.58;56.75;101288.34;5055652;28;20056;-67
2022/03/29 09:44:51;;;;;;;47.75;28.40;;;;;;;12.58;56.72;101281.13;5038215;28;20041;-66
2022/03/29 09:47:22;;;;;;;48.38;27.08;;;;;;;12.60;56.74;101273.78;5055448;28;20048;-67
2022/03/29 09:49:56;;;;;;;44.83;29.33;;;;;;;12.61;56.64;101274.66;5046609;28;20402;-67
2022/03/29 09:52:25;;;;;;;45.42;27.27;;;;;;;12.61;56.66;101275.50;5033876;28;20033;-66
2022/03/29 09:55:13;;;;;;;44.28;28.15;;;;;;;12.60;56.36;101273.78;5043791;28;20053;-67
2022/03/29 09:57:47;;;;;;;44.28;28.90;;;;;;;12.64;56.43;101274.44;5055744;28;20406;-66
2022/03/29 10:00:17;;;;;;;48.28;28.08;;;;;;;12.69;56.39;101269.59;5044134;28;20051;-67
2022/03/29 10:02:45;;;;;;;46.78;28.67;;;;;;;12.76;56.42;101265.47;5057175;28;20045;-67
2022/03/29 10:05:16;;;;;;;45.50;28.98;;;;;;;12.84;56.38;101265.75;5057419;28;20044;-67
2022/03/29 10:10:53;;;;;;;45.10;28.40;;;;;;;12.95;56.00;101257.75;5080471;28;20043;-67
2022/03/29 10:13:23;;;;;;;47.13;27.38;;;;;;;12.97;55.83;101258.50;5074298;28;20044;-66
2022/03/29 10:15:53;;;;;;;45.47;28.35;;;;;;;13.00;55.91;101254.69;5075322;28;20078;-65
2022/03/29 10:18:21;;;;;;;45.50;28.55;;;;;;;13.03;55.92;101257.16;5055529;28;20394;-66
2022/03/29 10:20:48;;;;;;;43.58;28.63;;;;;;;13.04;56.02;101253.50;5040183;28;20044;-65
2022/03/29 10:23:18;;;;;;;44.63;29.15;;;;;;;13.10;55.82;101257.56;5056624;28;20444;-65
2022/03/29 10:25:45;;;;;;;47.72;30.02;;;;;;;13.13;55.65;101252.81;5057013;28;20068;-66
2022/03/29 10:28:11;;;;;;;45.72;27.88;;;;;;;13.15;55.65;101239.19;5056991;28;20040;-65
2022/03/29 10:30:40;;;;;;;43.30;27.65;;;;;;;13.16;55.61;101239.09;5074831;28;20033;-65
2022/03/29 10:33:23;;;;;;;45.92;27.77;;;;;;;13.18;55.75;101239.88;5073502;28;20123;-66
2022/03/29 10:36:12;;;;;;;46.85;30.88;;;;;;;13.22;55.72;101241.34;5040085;28;20079;-65
2022/03/29 10:38:48;;;;;;;41.60;28.05;;;;;;;13.29;55.61;101239.06;5036677;28;20445;-64
2022/03/29 10:41:27;;;;;;;46.22;28.10;;;;;;;13.36;55.55;101235.75;5036422;28;20053;-65
2022/03/29 10:44:04;;;;;;;47.05;29.48;;;;;;;13.47;55.73;101234.13;5037069;28;20047;-64
2022/03/29 10:46:36;;;;;;;44.63;28.05;;;;;;;13.57;55.55;101238.69;5071584;28;20040;-64
2022/03/29 10:49:22;;;;;;;42.53;28.27;;;;;;;13.70;55.56;101235.88;5056127;28;20090;-65
2022/03/29 10:51:53;;;;;;;40.90;26.35;;;;;;;13.80;55.38;101231.50;5074284;28;20048;-64
2022/03/29 10:54:28;;;;;;;40.78;26.40;;;;;;;13.90;55.34;101223.53;5036109;28;20135;-64
2022/03/29 10:56:59;;;;;;;44.25;27.05;;;;;;;13.96;55.08;101217.63;5036520;28;20413;-64
2022/03/29 10:59:32;;;;;;;39.40;25.15;;;;;;;14.04;54.82;101220.59;5053147;28;20044;-65
2022/03/29 11:02:21;;;;;;;39.03;25.20;;;;;;;14.12;54.64;101217.28;5053084;28;20057;-65
2022/03/29 11:05:07;;;;;;;40.25;25.83;;;;;;;14.21;54.54;101217.44;5035984;28;20040;-64
2022/03/29 11:07:35;;;;;;;38.08;24.75;;;;;;;14.31;54.48;101204.03;5053757;28;20076;-64
2022/03/29 11:10:14;;;;;;;35.95;25.00;;;;;;;14.43;54.27;101203.06;5053709;28;20045;-65
2022/03/29 11:12:48;;;;;;;36.55;25.27;;;;;;;14.55;54.10;101212.00;5053792;28;20498;-65
2022/03/29 11:15:24;;;;;;;38.75;25.38;;;;;;;14.63;53.66;101205.00;5054131;28;20091;-64
2022/03/29 11:17:52;;;;;;;40.20;25.75;;;;;;;14.74;53.58;101198.69;5035870;28;20045;-65
2022/03/29 11:20:36;;;;;;;39.97;25.58;;;;;;;14.84;53.41;101193.38;5028573;28;20091;-64
2022/03/29 11:23:10;;;;;;;37.30;25.17;;;;;;;14.91;53.04;101187.38;5016518;28;20052;-65
2022/03/29 11:25:39;;;;;;;37.47;24.35;;;;;;;15.02;53.13;101182.91;5032749;28;20049;-65
2022/03/29 11:28:16;;;;;;;36.58;24.20;;;;;;;15.12;52.70;101182.00;5016033;28;20483;-64
2022/03/29 11:30:44;;;;;;;35.67;25.30;;;;;;;15.23;52.55;101181.06;5047170;28;20041;-65